Terminal Aerodrome Forecast
Issued by NWS

Home | Current Version | Previous Version | Text Only | Print | Product List | Glossary On
Versions: 1 2 3 4 5 6 7 8 9 10 11 12 13 14 15 16
962
FTUS43 KGRR 081909 AAA
TAFMKG
TAF AMD
KMKG 081909Z 0819/0918 16006KT P6SM VCSH OVC035
     FM082100 29007KT P6SM -SHSN OVC025
     FM090000 32009KT 5SM -SHSN BR OVC015
     FM090900 33010KT 4SM -SHSN BR OVC009=

USA.gov is the U.S. government's official web portal to all federal, state and local government web resources and services.